sensor_id;sensor_type;location;lat;lon;timestamp;P1;durP1;ratioP1;P2;durP2;ratioP2
44766;SDS011;30487;48.716;9.272;2023-02-02T00:01:30;9.07;;;1.55;;
44766;SDS011;30487;48.716;9.272;2023-02-02T00:03:57;6.72;;;1.65;;
44766;SDS011;30487;48.716;9.272;2023-02-02T00:06:23;4.65;;;1.35;;
44766;SDS011;30487;48.716;9.272;2023-02-02T00:08:52;5.65;;;1.33;;
44766;SDS011;30487;48.716;9.272;2023-02-02T00:11:19;6.82;;;1.40;;
44766;SDS011;30487;48.716;9.272;2023-02-02T00:13:45;10.13;;;1.60;;
44766;SDS011;30487;48.716;9.272;2023-02-02T00:18:55;5.10;;;1.33;;
44766;SDS011;30487;48.716;9.272;2023-02-02T00:21:25;4.95;;;1.77;;
44766;SDS011;30487;48.716;9.272;2023-02-02T00:23:51;7.82;;;1.40;;
44766;SDS011;30487;48.716;9.272;2023-02-02T00:26:17;10.60;;;1.60;;
44766;SDS011;30487;48.716;9.272;2023-02-02T00:28:44;4.38;;;1.13;;
44766;SDS011;30487;48.716;9.272;2023-02-02T00:31:09;9.23;;;1.50;;
44766;SDS011;30487;48.716;9.272;2023-02-02T00:33:35;6.57;;;1.42;;
44766;SDS011;30487;48.716;9.272;2023-02-02T00:36:01;7.82;;;1.30;;
44766;SDS011;30487;48.716;9.272;2023-02-02T00:38:28;7.00;;;1.40;;
44766;SDS011;30487;48.716;9.272;2023-02-02T00:40:54;10.57;;;1.02;;
44766;SDS011;30487;48.716;9.272;2023-02-02T00:43:20;7.38;;;1.10;;
44766;SDS011;30487;48.716;9.272;2023-02-02T00:45:45;8.27;;;1.50;;
44766;SDS011;30487;48.716;9.272;2023-02-02T00:48:12;7.43;;;1.10;;
44766;SDS011;30487;48.716;9.272;2023-02-02T00:50:37;7.28;;;1.20;;
44766;SDS011;30487;48.716;9.272;2023-02-02T00:53:03;6.03;;;1.52;;
44766;SDS011;30487;48.716;9.272;2023-02-02T00:55:29;4.82;;;1.27;;
44766;SDS011;30487;48.716;9.272;2023-02-02T00:57:54;7.75;;;1.10;;
44766;SDS011;30487;48.716;9.272;2023-02-02T01:00:21;7.32;;;1.20;;
44766;SDS011;30487;48.716;9.272;2023-02-02T01:02:49;4.00;;;1.10;;
44766;SDS011;30487;48.716;9.272;2023-02-02T01:05:15;8.38;;;1.40;;
44766;SDS011;30487;48.716;9.272;2023-02-02T01:07:41;4.78;;;1.08;;
44766;SDS011;30487;48.716;9.272;2023-02-02T01:10:08;5.38;;;1.20;;
44766;SDS011;30487;48.716;9.272;2023-02-02T01:12:37;6.63;;;1.30;;
44766;SDS011;30487;48.716;9.272;2023-02-02T01:15:02;5.47;;;1.00;;
44766;SDS011;30487;48.716;9.272;2023-02-02T01:17:28;3.50;;;0.95;;
44766;SDS011;30487;48.716;9.272;2023-02-02T01:19:54;5.38;;;1.30;;
44766;SDS011;30487;48.716;9.272;2023-02-02T01:22:19;3.55;;;0.82;;
44766;SDS011;30487;48.716;9.272;2023-02-02T01:24:45;5.22;;;1.10;;
44766;SDS011;30487;48.716;9.272;2023-02-02T01:27:11;7.50;;;1.13;;
44766;SDS011;30487;48.716;9.272;2023-02-02T01:29:36;8.43;;;1.60;;
44766;SDS011;30487;48.716;9.272;2023-02-02T01:32:02;5.32;;;1.00;;
44766;SDS011;30487;48.716;9.272;2023-02-02T01:34:28;3.47;;;0.93;;
44766;SDS011;30487;48.716;9.272;2023-02-02T01:36:53;5.22;;;1.10;;
44766;SDS011;30487;48.716;9.272;2023-02-02T01:39:19;6.65;;;1.00;;
44766;SDS011;30487;48.716;9.272;2023-02-02T01:41:44;3.58;;;1.05;;
44766;SDS011;30487;48.716;9.272;2023-02-02T01:47:13;5.10;;;0.88;;
44766;SDS011;30487;48.716;9.272;2023-02-02T01:49:39;5.50;;;1.20;;
44766;SDS011;30487;48.716;9.272;2023-02-02T01:52:05;4.47;;;1.00;;
44766;SDS011;30487;48.716;9.272;2023-02-02T01:54:35;5.00;;;1.02;;
44766;SDS011;30487;48.716;9.272;2023-02-02T01:57:32;5.60;;;1.20;;
44766;SDS011;30487;48.716;9.272;2023-02-02T02:00:04;4.93;;;1.30;;
44766;SDS011;30487;48.716;9.272;2023-02-02T02:02:34;8.65;;;1.25;;
44766;SDS011;30487;48.716;9.272;2023-02-02T02:05:02;6.95;;;1.10;;
44766;SDS011;30487;48.716;9.272;2023-02-02T02:07:29;8.07;;;1.38;;
44766;SDS011;30487;48.716;9.272;2023-02-02T02:09:54;3.97;;;0.90;;
44766;SDS011;30487;48.716;9.272;2023-02-02T02:12:20;4.28;;;1.15;;
44766;SDS011;30487;48.716;9.272;2023-02-02T02:14:46;6.45;;;1.13;;
44766;SDS011;30487;48.716;9.272;2023-02-02T02:17:49;5.47;;;1.02;;
44766;SDS011;30487;48.716;9.272;2023-02-02T02:35:07;6.47;;;1.17;;
44766;SDS011;30487;48.716;9.272;2023-02-02T02:42:56;4.93;;;0.93;;
44766;SDS011;30487;48.716;9.272;2023-02-02T02:45:25;3.55;;;0.70;;
44766;SDS011;30487;48.716;9.272;2023-02-02T02:47:53;5.00;;;0.93;;
44766;SDS011;30487;48.716;9.272;2023-02-02T02:50:19;5.05;;;1.15;;
44766;SDS011;30487;48.716;9.272;2023-02-02T02:52:45;4.50;;;0.90;;
44766;SDS011;30487;48.716;9.272;2023-02-02T02:55:13;5.00;;;0.90;;
44766;SDS011;30487;48.716;9.272;2023-02-02T02:57:54;4.18;;;0.88;;
44766;SDS011;30487;48.716;9.272;2023-02-02T03:00:27;5.35;;;0.70;;
44766;SDS011;30487;48.716;9.272;2023-02-02T03:05:41;6.30;;;0.95;;
44766;SDS011;30487;48.716;9.272;2023-02-02T03:08:17;2.88;;;0.88;;
44766;SDS011;30487;48.716;9.272;2023-02-02T03:10:51;2.45;;;0.80;;
44766;SDS011;30487;48.716;9.272;2023-02-02T03:13:17;2.67;;;0.70;;
44766;SDS011;30487;48.716;9.272;2023-02-02T03:15:44;4.15;;;0.73;;
44766;SDS011;30487;48.716;9.272;2023-02-02T03:18:14;4.82;;;1.00;;
44766;SDS011;30487;48.716;9.272;2023-02-02T03:20:42;4.90;;;0.95;;
44766;SDS011;30487;48.716;9.272;2023-02-02T03:23:09;3.60;;;0.82;;
44766;SDS011;30487;48.716;9.272;2023-02-02T03:25:35;3.08;;;0.68;;
44766;SDS011;30487;48.716;9.272;2023-02-02T03:28:01;1.60;;;0.43;;
44766;SDS011;30487;48.716;9.272;2023-02-02T03:30:26;4.07;;;0.63;;
44766;SDS011;30487;48.716;9.272;2023-02-02T03:32:52;5.18;;;0.77;;
44766;SDS011;30487;48.716;9.272;2023-02-02T03:35:18;2.70;;;0.55;;
44766;SDS011;30487;48.716;9.272;2023-02-02T03:37:46;2.65;;;0.70;;
44766;SDS011;30487;48.716;9.272;2023-02-02T03:40:13;3.90;;;0.68;;
44766;SDS011;30487;48.716;9.272;2023-02-02T03:42:39;2.22;;;0.70;;
44766;SDS011;30487;48.716;9.272;2023-02-02T03:45:05;3.13;;;0.68;;
44766;SDS011;30487;48.716;9.272;2023-02-02T03:47:31;2.13;;;0.50;;
44766;SDS011;30487;48.716;9.272;2023-02-02T03:49:57;3.63;;;0.50;;
44766;SDS011;30487;48.716;9.272;2023-02-02T03:52:23;3.17;;;0.60;;
44766;SDS011;30487;48.716;9.272;2023-02-02T03:54:50;3.53;;;0.50;;
44766;SDS011;30487;48.716;9.272;2023-02-02T03:57:15;3.83;;;0.80;;
44766;SDS011;30487;48.716;9.272;2023-02-02T03:59:41;3.70;;;0.70;;
44766;SDS011;30487;48.716;9.272;2023-02-02T04:02:06;1.35;;;0.47;;
44766;SDS011;30487;48.716;9.272;2023-02-02T04:04:32;2.20;;;0.70;;
44766;SDS011;30487;48.716;9.272;2023-02-02T04:06:58;2.72;;;0.40;;
44766;SDS011;30487;48.716;9.272;2023-02-02T04:09:24;3.70;;;0.70;;
44766;SDS011;30487;48.716;9.272;2023-02-02T04:11:49;3.38;;;0.52;;
44766;SDS011;30487;48.716;9.272;2023-02-02T04:14:15;3.65;;;0.70;;
44766;SDS011;30487;48.716;9.272;2023-02-02T04:16:41;1.88;;;0.55;;
44766;SDS011;30487;48.716;9.272;2023-02-02T04:19:06;2.67;;;0.50;;
44766;SDS011;30487;48.716;9.272;2023-02-02T04:21:32;2.47;;;0.60;;
44766;SDS011;30487;48.716;9.272;2023-02-02T04:23:58;1.90;;;0.57;;
44766;SDS011;30487;48.716;9.272;2023-02-02T04:26:24;3.40;;;0.70;;
44766;SDS011;30487;48.716;9.272;2023-02-02T04:28:50;3.53;;;0.63;;
44766;SDS011;30487;48.716;9.272;2023-02-02T04:31:17;2.25;;;0.50;;
44766;SDS011;30487;48.716;9.272;2023-02-02T04:33:43;1.75;;;0.50;;
44766;SDS011;30487;48.716;9.272;2023-02-02T04:36:08;4.18;;;0.60;;
44766;SDS011;30487;48.716;9.272;2023-02-02T04:38:34;5.00;;;0.60;;
44766;SDS011;30487;48.716;9.272;2023-02-02T04:41:04;3.72;;;0.57;;
44766;SDS011;30487;48.716;9.272;2023-02-02T04:43:38;4.85;;;0.75;;
44766;SDS011;30487;48.716;9.272;2023-02-02T04:46:04;2.85;;;0.70;;
44766;SDS011;30487;48.716;9.272;2023-02-02T04:48:30;2.88;;;0.93;;
44766;SDS011;30487;48.716;9.272;2023-02-02T04:50:59;3.15;;;0.50;;
44766;SDS011;30487;48.716;9.272;2023-02-02T04:53:25;3.78;;;0.80;;
44766;SDS011;30487;48.716;9.272;2023-02-02T04:55:51;2.83;;;0.70;;
44766;SDS011;30487;48.716;9.272;2023-02-02T04:58:17;6.25;;;0.60;;
44766;SDS011;30487;48.716;9.272;2023-02-02T05:00:43;5.45;;;0.70;;
44766;SDS011;30487;48.716;9.272;2023-02-02T05:03:09;3.72;;;0.50;;
44766;SDS011;30487;48.716;9.272;2023-02-02T05:05:34;2.65;;;0.60;;
44766;SDS011;30487;48.716;9.272;2023-02-02T05:08:00;3.30;;;0.88;;
44766;SDS011;30487;48.716;9.272;2023-02-02T05:10:25;3.13;;;0.75;;
44766;SDS011;30487;48.716;9.272;2023-02-02T05:12:51;2.30;;;0.50;;
44766;SDS011;30487;48.716;9.272;2023-02-02T05:15:17;2.08;;;0.47;;
44766;SDS011;30487;48.716;9.272;2023-02-02T05:17:45;3.95;;;0.68;;
44766;SDS011;30487;48.716;9.272;2023-02-02T05:20:11;4.18;;;1.00;;
44766;SDS011;30487;48.716;9.272;2023-02-02T05:22:37;2.50;;;0.70;;
44766;SDS011;30487;48.716;9.272;2023-02-02T05:25:03;1.45;;;0.50;;
44766;SDS011;30487;48.716;9.272;2023-02-02T05:27:29;1.50;;;0.70;;
44766;SDS011;30487;48.716;9.272;2023-02-02T05:29:55;3.08;;;0.60;;
44766;SDS011;30487;48.716;9.272;2023-02-02T05:32:20;2.95;;;0.90;;
44766;SDS011;30487;48.716;9.272;2023-02-02T05:34:46;3.45;;;0.70;;
44766;SDS011;30487;48.716;9.272;2023-02-02T05:37:12;2.88;;;0.80;;
44766;SDS011;30487;48.716;9.272;2023-02-02T05:39:37;5.35;;;0.80;;
44766;SDS011;30487;48.716;9.272;2023-02-02T05:42:03;3.83;;;0.90;;
44766;SDS011;30487;48.716;9.272;2023-02-02T05:44:28;3.72;;;0.77;;
44766;SDS011;30487;48.716;9.272;2023-02-02T05:46:54;4.80;;;0.80;;
44766;SDS011;30487;48.716;9.272;2023-02-02T05:49:19;4.97;;;0.98;;
44766;SDS011;30487;48.716;9.272;2023-02-02T05:51:46;4.47;;;1.00;;
44766;SDS011;30487;48.716;9.272;2023-02-02T05:54:13;7.65;;;1.00;;
44766;SDS011;30487;48.716;9.272;2023-02-02T05:56:43;5.13;;;0.80;;
44766;SDS011;30487;48.716;9.272;2023-02-02T05:59:09;2.17;;;0.50;;
44766;SDS011;30487;48.716;9.272;2023-02-02T06:01:34;5.85;;;0.70;;
44766;SDS011;30487;48.716;9.272;2023-02-02T06:04:00;5.05;;;0.90;;
44766;SDS011;30487;48.716;9.272;2023-02-02T06:06:26;4.93;;;1.00;;
44766;SDS011;30487;48.716;9.272;2023-02-02T06:08:51;4.03;;;0.80;;
44766;SDS011;30487;48.716;9.272;2023-02-02T06:11:17;4.85;;;0.90;;
44766;SDS011;30487;48.716;9.272;2023-02-02T06:13:43;3.33;;;0.93;;
44766;SDS011;30487;48.716;9.272;2023-02-02T06:16:09;6.32;;;0.93;;
44766;SDS011;30487;48.716;9.272;2023-02-02T06:18:35;2.70;;;0.90;;
44766;SDS011;30487;48.716;9.272;2023-02-02T06:21:01;3.45;;;0.80;;
44766;SDS011;30487;48.716;9.272;2023-02-02T06:23:29;4.85;;;0.95;;
44766;SDS011;30487;48.716;9.272;2023-02-02T06:25:55;5.50;;;0.80;;
44766;SDS011;30487;48.716;9.272;2023-02-02T06:28:21;5.40;;;0.82;;
44766;SDS011;30487;48.716;9.272;2023-02-02T06:30:46;2.35;;;0.77;;
44766;SDS011;30487;48.716;9.272;2023-02-02T06:33:12;3.67;;;0.80;;
44766;SDS011;30487;48.716;9.272;2023-02-02T06:35:37;5.28;;;0.90;;
44766;SDS011;30487;48.716;9.272;2023-02-02T06:38:03;4.80;;;1.60;;
44766;SDS011;30487;48.716;9.272;2023-02-02T06:40:29;5.43;;;0.95;;
44766;SDS011;30487;48.716;9.272;2023-02-02T06:42:57;4.65;;;0.95;;
44766;SDS011;30487;48.716;9.272;2023-02-02T06:45:27;6.38;;;0.85;;
44766;SDS011;30487;48.716;9.272;2023-02-02T06:47:56;7.93;;;1.45;;
44766;SDS011;30487;48.716;9.272;2023-02-02T06:50:24;3.88;;;0.85;;
44766;SDS011;30487;48.716;9.272;2023-02-02T06:52:50;3.97;;;1.10;;
44766;SDS011;30487;48.716;9.272;2023-02-02T06:55:17;5.65;;;1.23;;
44766;SDS011;30487;48.716;9.272;2023-02-02T06:57:42;5.57;;;0.93;;
44766;SDS011;30487;48.716;9.272;2023-02-02T07:00:09;6.28;;;1.10;;
44766;SDS011;30487;48.716;9.272;2023-02-02T07:02:35;3.15;;;0.90;;
44766;SDS011;30487;48.716;9.272;2023-02-02T07:05:01;5.63;;;1.10;;
44766;SDS011;30487;48.716;9.272;2023-02-02T07:07:27;4.13;;;0.88;;
44766;SDS011;30487;48.716;9.272;2023-02-02T07:09:56;5.15;;;1.15;;
44766;SDS011;30487;48.716;9.272;2023-02-02T07:12:22;4.22;;;1.05;;
44766;SDS011;30487;48.716;9.272;2023-02-02T07:14:48;5.97;;;1.23;;
44766;SDS011;30487;48.716;9.272;2023-02-02T07:17:14;3.17;;;0.90;;
44766;SDS011;30487;48.716;9.272;2023-02-02T07:19:40;2.40;;;0.80;;
44766;SDS011;30487;48.716;9.272;2023-02-02T07:22:05;4.30;;;0.90;;
44766;SDS011;30487;48.716;9.272;2023-02-02T07:24:31;4.03;;;0.85;;
44766;SDS011;30487;48.716;9.272;2023-02-02T07:26:57;3.67;;;0.80;;
44766;SDS011;30487;48.716;9.272;2023-02-02T07:29:22;2.17;;;0.75;;
44766;SDS011;30487;48.716;9.272;2023-02-02T07:31:48;2.42;;;0.63;;
44766;SDS011;30487;48.716;9.272;2023-02-02T07:34:14;3.70;;;0.98;;
44766;SDS011;30487;48.716;9.272;2023-02-02T07:36:39;2.45;;;0.70;;
44766;SDS011;30487;48.716;9.272;2023-02-02T07:39:05;3.97;;;1.08;;
44766;SDS011;30487;48.716;9.272;2023-02-02T07:41:32;3.50;;;0.90;;
44766;SDS011;30487;48.716;9.272;2023-02-02T07:43:59;5.57;;;0.95;;
44766;SDS011;30487;48.716;9.272;2023-02-02T07:46:25;6.93;;;0.90;;
44766;SDS011;30487;48.716;9.272;2023-02-02T07:48:54;4.70;;;1.10;;
44766;SDS011;30487;48.716;9.272;2023-02-02T07:51:21;2.42;;;0.80;;
44766;SDS011;30487;48.716;9.272;2023-02-02T07:53:48;4.15;;;1.08;;
44766;SDS011;30487;48.716;9.272;2023-02-02T07:56:17;3.33;;;1.17;;
44766;SDS011;30487;48.716;9.272;2023-02-02T07:58:42;5.00;;;1.20;;
44766;SDS011;30487;48.716;9.272;2023-02-02T08:01:09;5.07;;;1.10;;
44766;SDS011;30487;48.716;9.272;2023-02-02T08:03:36;4.57;;;1.20;;
44766;SDS011;30487;48.716;9.272;2023-02-02T08:06:09;3.67;;;1.17;;
44766;SDS011;30487;48.716;9.272;2023-02-02T08:08:38;4.13;;;1.27;;
44766;SDS011;30487;48.716;9.272;2023-02-02T08:11:04;4.05;;;1.13;;
44766;SDS011;30487;48.716;9.272;2023-02-02T08:13:31;5.13;;;1.13;;
44766;SDS011;30487;48.716;9.272;2023-02-02T08:15:57;2.42;;;1.20;;
44766;SDS011;30487;48.716;9.272;2023-02-02T08:18:23;6.18;;;1.23;;
44766;SDS011;30487;48.716;9.272;2023-02-02T08:20:49;6.18;;;1.20;;
44766;SDS011;30487;48.716;9.272;2023-02-02T08:23:16;5.05;;;1.17;;
44766;SDS011;30487;48.716;9.272;2023-02-02T08:25:47;5.40;;;1.42;;
44766;SDS011;30487;48.716;9.272;2023-02-02T08:28:16;6.75;;;1.23;;
44766;SDS011;30487;48.716;9.272;2023-02-02T08:30:42;4.32;;;1.10;;
44766;SDS011;30487;48.716;9.272;2023-02-02T08:33:08;6.82;;;1.33;;
44766;SDS011;30487;48.716;9.272;2023-02-02T08:35:34;7.70;;;1.50;;
44766;SDS011;30487;48.716;9.272;2023-02-02T08:38:04;6.38;;;1.20;;
44766;SDS011;30487;48.716;9.272;2023-02-02T08:40:31;4.43;;;1.17;;
44766;SDS011;30487;48.716;9.272;2023-02-02T08:42:57;3.10;;;1.10;;
44766;SDS011;30487;48.716;9.272;2023-02-02T08:45:23;3.90;;;1.35;;
44766;SDS011;30487;48.716;9.272;2023-02-02T08:47:49;5.60;;;1.08;;
44766;SDS011;30487;48.716;9.272;2023-02-02T08:50:15;4.30;;;1.08;;
44766;SDS011;30487;48.716;9.272;2023-02-02T08:52:42;4.03;;;1.20;;
44766;SDS011;30487;48.716;9.272;2023-02-02T08:55:08;8.60;;;0.98;;
44766;SDS011;30487;48.716;9.272;2023-02-02T08:57:33;3.33;;;1.02;;
44766;SDS011;30487;48.716;9.272;2023-02-02T08:59:59;2.72;;;0.93;;
44766;SDS011;30487;48.716;9.272;2023-02-02T09:02:24;4.50;;;1.20;;
44766;SDS011;30487;48.716;9.272;2023-02-02T09:04:50;6.07;;;1.20;;
44766;SDS011;30487;48.716;9.272;2023-02-02T09:07:16;6.13;;;1.30;;
44766;SDS011;30487;48.716;9.272;2023-02-02T09:09:41;8.13;;;1.30;;
44766;SDS011;30487;48.716;9.272;2023-02-02T09:12:07;5.55;;;1.38;;
44766;SDS011;30487;48.716;9.272;2023-02-02T09:14:32;5.88;;;0.95;;
44766;SDS011;30487;48.716;9.272;2023-02-02T09:16:58;4.82;;;1.38;;
44766;SDS011;30487;48.716;9.272;2023-02-02T09:19:23;6.53;;;1.30;;
44766;SDS011;30487;48.716;9.272;2023-02-02T09:21:49;3.80;;;0.93;;
44766;SDS011;30487;48.716;9.272;2023-02-02T09:24:15;6.80;;;1.25;;
44766;SDS011;30487;48.716;9.272;2023-02-02T09:26:41;5.03;;;1.38;;
44766;SDS011;30487;48.716;9.272;2023-02-02T09:29:12;6.72;;;1.10;;
44766;SDS011;30487;48.716;9.272;2023-02-02T09:31:40;5.30;;;1.00;;
44766;SDS011;30487;48.716;9.272;2023-02-02T09:34:07;3.05;;;0.88;;
44766;SDS011;30487;48.716;9.272;2023-02-02T09:36:35;4.03;;;1.15;;
44766;SDS011;30487;48.716;9.272;2023-02-02T09:39:01;4.22;;;1.10;;
44766;SDS011;30487;48.716;9.272;2023-02-02T09:47:23;5.88;;;1.27;;
44766;SDS011;30487;48.716;9.272;2023-02-02T09:55:40;5.60;;;1.45;;
44766;SDS011;30487;48.716;9.272;2023-02-02T10:00:50;9.00;;;1.83;;
44766;SDS011;30487;48.716;9.272;2023-02-02T10:08:56;9.13;;;1.70;;
44766;SDS011;30487;48.716;9.272;2023-02-02T10:11:46;6.72;;;1.48;;
44766;SDS011;30487;48.716;9.272;2023-02-02T10:14:33;7.05;;;1.00;;
44766;SDS011;30487;48.716;9.272;2023-02-02T10:17:22;5.57;;;0.98;;
44766;SDS011;30487;48.716;9.272;2023-02-02T10:25:56;5.50;;;1.33;;
44766;SDS011;30487;48.716;9.272;2023-02-02T10:29:11;5.80;;;1.27;;
44766;SDS011;30487;48.716;9.272;2023-02-02T10:31:42;6.25;;;1.17;;
44766;SDS011;30487;48.716;9.272;2023-02-02T10:34:32;7.45;;;1.30;;
44766;SDS011;30487;48.716;9.272;2023-02-02T10:46:05;3.20;;;1.02;;
44766;SDS011;30487;48.716;9.272;2023-02-02T10:48:43;9.32;;;1.23;;
44766;SDS011;30487;48.716;9.272;2023-02-02T10:51:28;4.78;;;1.20;;
44766;SDS011;30487;48.716;9.272;2023-02-02T10:53:55;7.03;;;1.50;;
44766;SDS011;30487;48.716;9.272;2023-02-02T10:56:34;8.38;;;1.30;;
44766;SDS011;30487;48.716;9.272;2023-02-02T11:01:58;4.65;;;1.20;;
44766;SDS011;30487;48.716;9.272;2023-02-02T11:04:23;3.95;;;1.17;;
44766;SDS011;30487;48.716;9.272;2023-02-02T11:07:08;4.28;;;1.00;;
44766;SDS011;30487;48.716;9.272;2023-02-02T11:09:43;4.50;;;1.27;;
44766;SDS011;30487;48.716;9.272;2023-02-02T11:12:18;2.38;;;1.05;;
44766;SDS011;30487;48.716;9.272;2023-02-02T11:17:46;6.03;;;1.25;;
44766;SDS011;30487;48.716;9.272;2023-02-02T11:23:02;7.07;;;1.20;;
44766;SDS011;30487;48.716;9.272;2023-02-02T11:25:34;5.78;;;1.30;;
44766;SDS011;30487;48.716;9.272;2023-02-02T11:28:20;3.75;;;1.33;;
44766;SDS011;30487;48.716;9.272;2023-02-02T11:30:49;5.60;;;1.30;;
44766;SDS011;30487;48.716;9.272;2023-02-02T11:36:03;4.55;;;1.05;;
44766;SDS011;30487;48.716;9.272;2023-02-02T11:38:30;3.75;;;0.98;;
44766;SDS011;30487;48.716;9.272;2023-02-02T11:41:01;3.60;;;1.00;;
44766;SDS011;30487;48.716;9.272;2023-02-02T11:43:33;3.67;;;1.00;;
44766;SDS011;30487;48.716;9.272;2023-02-02T11:46:05;6.22;;;1.30;;
44766;SDS011;30487;48.716;9.272;2023-02-02T11:49:02;3.10;;;1.10;;
44766;SDS011;30487;48.716;9.272;2023-02-02T11:51:38;6.65;;;1.30;;
44766;SDS011;30487;48.716;9.272;2023-02-02T11:54:17;4.43;;;1.00;;
44766;SDS011;30487;48.716;9.272;2023-02-02T11:56:49;4.78;;;1.15;;
44766;SDS011;30487;48.716;9.272;2023-02-02T11:59:25;4.50;;;1.30;;
44766;SDS011;30487;48.716;9.272;2023-02-02T12:04:43;4.75;;;1.20;;
44766;SDS011;30487;48.716;9.272;2023-02-02T12:07:30;5.70;;;1.58;;
44766;SDS011;30487;48.716;9.272;2023-02-02T12:10:01;7.10;;;1.40;;
44766;SDS011;30487;48.716;9.272;2023-02-02T12:12:42;5.47;;;1.27;;
44766;SDS011;30487;48.716;9.272;2023-02-02T12:15:35;6.10;;;1.23;;
44766;SDS011;30487;48.716;9.272;2023-02-02T12:20:55;3.45;;;1.35;;
44766;SDS011;30487;48.716;9.272;2023-02-02T12:26:08;9.52;;;1.50;;
44766;SDS011;30487;48.716;9.272;2023-02-02T12:29:19;7.30;;;1.40;;
44766;SDS011;30487;48.716;9.272;2023-02-02T12:43:00;5.75;;;1.20;;
44766;SDS011;30487;48.716;9.272;2023-02-02T12:45:41;4.00;;;0.90;;
44766;SDS011;30487;48.716;9.272;2023-02-02T12:53:50;5.85;;;1.05;;
44766;SDS011;30487;48.716;9.272;2023-02-02T13:11:18;6.53;;;0.98;;
44766;SDS011;30487;48.716;9.272;2023-02-02T13:14:14;9.75;;;1.00;;
44766;SDS011;30487;48.716;9.272;2023-02-02T13:16:46;6.20;;;0.90;;
44766;SDS011;30487;48.716;9.272;2023-02-02T13:20:02;8.10;;;1.27;;
44766;SDS011;30487;48.716;9.272;2023-02-02T13:22:09;2.95;;;1.00;;
44766;SDS011;30487;48.716;9.272;2023-02-02T13:24:40;5.30;;;1.10;;
44766;SDS011;30487;48.716;9.272;2023-02-02T13:27:10;4.25;;;1.10;;
44766;SDS011;30487;48.716;9.272;2023-02-02T13:29:43;6.93;;;1.20;;
44766;SDS011;30487;48.716;9.272;2023-02-02T13:32:20;7.85;;;1.15;;
44766;SDS011;30487;48.716;9.272;2023-02-02T13:48:10;6.35;;;1.50;;
44766;SDS011;30487;48.716;9.272;2023-02-02T13:51:11;6.95;;;1.33;;
44766;SDS011;30487;48.716;9.272;2023-02-02T13:59:24;6.53;;;1.00;;
44766;SDS011;30487;48.716;9.272;2023-02-02T14:02:19;5.43;;;1.05;;
44766;SDS011;30487;48.716;9.272;2023-02-02T14:05:06;3.08;;;1.10;;
44766;SDS011;30487;48.716;9.272;2023-02-02T14:07:41;5.03;;;1.10;;
44766;SDS011;30487;48.716;9.272;2023-02-02T14:13:15;5.35;;;1.10;;
44766;SDS011;30487;48.716;9.272;2023-02-02T14:16:04;2.60;;;0.95;;
44766;SDS011;30487;48.716;9.272;2023-02-02T14:21:30;6.05;;;1.50;;
44766;SDS011;30487;48.716;9.272;2023-02-02T14:32:39;6.07;;;1.52;;
44766;SDS011;30487;48.716;9.272;2023-02-02T14:34:59;2.70;;;0.88;;
44766;SDS011;30487;48.716;9.272;2023-02-02T14:38:20;5.55;;;1.48;;
44766;SDS011;30487;48.716;9.272;2023-02-02T14:40:41;5.07;;;1.45;;
44766;SDS011;30487;48.716;9.272;2023-02-02T14:43:19;4.70;;;1.25;;
44766;SDS011;30487;48.716;9.272;2023-02-02T14:51:11;7.60;;;1.27;;
44766;SDS011;30487;48.716;9.272;2023-02-02T14:53:51;7.78;;;1.30;;
44766;SDS011;30487;48.716;9.272;2023-02-02T14:59:36;5.63;;;1.20;;
44766;SDS011;30487;48.716;9.272;2023-02-02T15:04:41;4.47;;;1.25;;
44766;SDS011;30487;48.716;9.272;2023-02-02T15:09:51;6.43;;;0.95;;
44766;SDS011;30487;48.716;9.272;2023-02-02T15:15:15;7.10;;;1.07;;
44766;SDS011;30487;48.716;9.272;2023-02-02T15:17:57;7.10;;;1.10;;
44766;SDS011;30487;48.716;9.272;2023-02-02T15:20:29;5.90;;;1.10;;
44766;SDS011;30487;48.716;9.272;2023-02-02T15:26:01;6.15;;;0.98;;
44766;SDS011;30487;48.716;9.272;2023-02-02T15:31:13;6.40;;;1.17;;
44766;SDS011;30487;48.716;9.272;2023-02-02T15:33:42;5.05;;;1.00;;
44766;SDS011;30487;48.716;9.272;2023-02-02T15:36:10;4.07;;;0.98;;
44766;SDS011;30487;48.716;9.272;2023-02-02T15:38:42;6.20;;;1.13;;
44766;SDS011;30487;48.716;9.272;2023-02-02T15:41:13;5.28;;;1.02;;
44766;SDS011;30487;48.716;9.272;2023-02-02T15:43:53;4.97;;;1.10;;
44766;SDS011;30487;48.716;9.272;2023-02-02T15:46:26;7.28;;;1.33;;
44766;SDS011;30487;48.716;9.272;2023-02-02T15:49:20;9.70;;;1.20;;
44766;SDS011;30487;48.716;9.272;2023-02-02T15:51:53;10.30;;;1.77;;
44766;SDS011;30487;48.716;9.272;2023-02-02T15:54:30;5.20;;;1.40;;
44766;SDS011;30487;48.716;9.272;2023-02-02T15:56:59;5.15;;;0.93;;
44766;SDS011;30487;48.716;9.272;2023-02-02T15:59:27;8.00;;;1.08;;
44766;SDS011;30487;48.716;9.272;2023-02-02T16:04:36;7.97;;;1.27;;
44766;SDS011;30487;48.716;9.272;2023-02-02T16:07:04;8.30;;;1.30;;
44766;SDS011;30487;48.716;9.272;2023-02-02T16:09:36;6.28;;;1.23;;
44766;SDS011;30487;48.716;9.272;2023-02-02T16:12:03;8.40;;;1.45;;
44766;SDS011;30487;48.716;9.272;2023-02-02T16:14:30;3.95;;;0.93;;
44766;SDS011;30487;48.716;9.272;2023-02-02T16:17:16;7.53;;;1.30;;
44766;SDS011;30487;48.716;9.272;2023-02-02T16:20:03;5.93;;;1.27;;
44766;SDS011;30487;48.716;9.272;2023-02-02T16:22:38;4.43;;;1.15;;
44766;SDS011;30487;48.716;9.272;2023-02-02T16:25:06;4.15;;;0.90;;
44766;SDS011;30487;48.716;9.272;2023-02-02T16:27:34;6.47;;;1.30;;
44766;SDS011;30487;48.716;9.272;2023-02-02T16:30:05;7.22;;;1.42;;
44766;SDS011;30487;48.716;9.272;2023-02-02T16:32:34;6.95;;;1.27;;
44766;SDS011;30487;48.716;9.272;2023-02-02T16:35:03;7.55;;;1.00;;
44766;SDS011;30487;48.716;9.272;2023-02-02T16:37:31;6.07;;;1.10;;
44766;SDS011;30487;48.716;9.272;2023-02-02T16:42:47;4.70;;;1.00;;
44766;SDS011;30487;48.716;9.272;2023-02-02T16:48:16;3.85;;;1.20;;
44766;SDS011;30487;48.716;9.272;2023-02-02T16:50:47;2.90;;;1.30;;
44766;SDS011;30487;48.716;9.272;2023-02-02T16:53:29;4.25;;;0.95;;
44766;SDS011;30487;48.716;9.272;2023-02-02T16:55:55;6.15;;;1.05;;
44766;SDS011;30487;48.716;9.272;2023-02-02T16:58:21;2.53;;;0.90;;
44766;SDS011;30487;48.716;9.272;2023-02-02T17:00:55;3.90;;;1.17;;
44766;SDS011;30487;48.716;9.272;2023-02-02T17:03:28;4.13;;;1.00;;
44766;SDS011;30487;48.716;9.272;2023-02-02T17:05:57;4.03;;;1.10;;
44766;SDS011;30487;48.716;9.272;2023-02-02T17:08:24;2.47;;;0.70;;
44766;SDS011;30487;48.716;9.272;2023-02-02T17:11:03;3.63;;;1.10;;
44766;SDS011;30487;48.716;9.272;2023-02-02T17:15:59;3.00;;;0.80;;
44766;SDS011;30487;48.716;9.272;2023-02-02T17:18:25;4.60;;;0.77;;
44766;SDS011;30487;48.716;9.272;2023-02-02T17:20:51;5.95;;;1.00;;
44766;SDS011;30487;48.716;9.272;2023-02-02T17:23:22;3.72;;;0.80;;
44766;SDS011;30487;48.716;9.272;2023-02-02T17:25:49;2.88;;;0.90;;
44766;SDS011;30487;48.716;9.272;2023-02-02T17:28:16;5.07;;;0.70;;
44766;SDS011;30487;48.716;9.272;2023-02-02T17:30:45;3.35;;;0.80;;
44766;SDS011;30487;48.716;9.272;2023-02-02T17:33:14;2.25;;;0.70;;
44766;SDS011;30487;48.716;9.272;2023-02-02T17:35:43;3.33;;;0.80;;
44766;SDS011;30487;48.716;9.272;2023-02-02T17:38:10;2.78;;;0.82;;
44766;SDS011;30487;48.716;9.272;2023-02-02T17:40:35;4.38;;;0.90;;
44766;SDS011;30487;48.716;9.272;2023-02-02T17:43:01;3.63;;;0.85;;
44766;SDS011;30487;48.716;9.272;2023-02-02T17:45:28;3.17;;;0.90;;
44766;SDS011;30487;48.716;9.272;2023-02-02T17:47:55;4.68;;;0.85;;
44766;SDS011;30487;48.716;9.272;2023-02-02T17:50:21;3.05;;;0.90;;
44766;SDS011;30487;48.716;9.272;2023-02-02T17:52:47;4.03;;;0.60;;
44766;SDS011;30487;48.716;9.272;2023-02-02T17:55:21;2.55;;;0.70;;
44766;SDS011;30487;48.716;9.272;2023-02-02T17:57:48;3.72;;;0.73;;
44766;SDS011;30487;48.716;9.272;2023-02-02T18:00:18;2.50;;;0.90;;
44766;SDS011;30487;48.716;9.272;2023-02-02T18:02:47;4.10;;;0.82;;
44766;SDS011;30487;48.716;9.272;2023-02-02T18:05:14;2.75;;;0.80;;